Time;durP1;ratioP1;P1;durP2;ratioP2;P2;SDS_P1;SDS_P2;PMS_P1;PMS_P2;Temp;Humidity;BMP_temperature;BMP_pressure;BME280_temperature;BME280_humidity;BME280_pressure;Samples;Min_cycle;Max_cycle;Signal;HPM_P1;HPM_P2
2021/12/22 00:01:42;;;;;;;52.55;28.90;;;-2.60;99.90;;;;;;5040616;28;20253;-70
2021/12/22 00:04:09;;;;;;;51.80;29.02;;;-2.60;99.90;;;;;;5048810;28;20250;-71
2021/12/22 00:06:36;;;;;;;71.00;30.88;;;-2.60;99.90;;;;;;5048613;28;20192;-70
2021/12/22 00:09:05;;;;;;;66.03;29.20;;;-2.60;99.90;;;;;;5048802;28;20184;-70
2021/12/22 00:11:32;;;;;;;56.45;29.58;;;-2.70;99.90;;;;;;5046807;28;20496;-70
2021/12/22 00:13:59;;;;;;;47.10;28.75;;;-2.60;99.90;;;;;;5048038;28;20216;-70
2021/12/22 00:16:27;;;;;;;43.08;26.40;;;-2.70;99.90;;;;;;5048460;28;20208;-71
2021/12/22 00:18:54;;;;;;;50.03;26.48;;;-2.60;99.90;;;;;;5048368;28;20358;-70
2021/12/22 00:21:21;;;;;;;52.80;28.52;;;-2.50;99.90;;;;;;5047286;28;20216;-71
2021/12/22 00:23:48;;;;;;;54.40;27.73;;;-2.50;99.90;;;;;;5048550;28;20367;-70
2021/12/22 00:26:16;;;;;;;58.53;30.73;;;-2.50;99.90;;;;;;5047876;28;20328;-70
2021/12/22 00:28:44;;;;;;;55.35;25.98;;;-2.60;99.90;;;;;;5047836;28;20192;-71
2021/12/22 00:31:13;;;;;;;62.83;31.30;;;-2.60;99.90;;;;;;5044656;28;20219;-70
2021/12/22 00:33:48;;;;;;;50.97;24.35;;;-2.50;99.90;;;;;;5048114;28;20191;-71
2021/12/22 00:36:15;;;;;;;49.90;24.30;;;-2.50;99.90;;;;;;5048237;28;20233;-71
2021/12/22 00:38:42;;;;;;;44.38;26.15;;;-2.60;99.90;;;;;;5048163;28;20219;-72
2021/12/22 00:41:09;;;;;;;48.67;28.02;;;-2.60;99.90;;;;;;5046843;28;20224;-71
2021/12/22 00:43:37;;;;;;;88.57;27.92;;;-2.70;99.90;;;;;;5047206;28;20196;-70
2021/12/22 00:46:04;;;;;;;47.28;25.70;;;-2.70;99.90;;;;;;5038434;28;20189;-71
2021/12/22 00:48:32;;;;;;;62.63;26.85;;;-2.70;99.90;;;;;;5046337;28;20223;-70
2021/12/22 00:51:01;;;;;;;77.47;30.75;;;-2.70;99.90;;;;;;5046831;28;20228;-70
2021/12/22 00:53:28;;;;;;;62.78;29.63;;;-2.70;99.90;;;;;;5047352;28;20231;-70
2021/12/22 00:55:55;;;;;;;48.15;26.98;;;-2.90;99.90;;;;;;5041406;28;20498;-71
2021/12/22 00:58:22;;;;;;;70.72;30.77;;;-2.80;99.90;;;;;;5047722;28;20258;-71
2021/12/22 01:00:49;;;;;;;82.45;30.42;;;-2.80;99.90;;;;;;5033764;28;20258;-71
2021/12/22 01:03:18;;;;;;;45.47;27.50;;;-2.80;99.90;;;;;;5047306;28;20224;-71
2021/12/22 01:05:45;;;;;;;56.38;29.55;;;-2.80;99.90;;;;;;5047050;28;20306;-71
2021/12/22 01:08:14;;;;;;;72.53;30.75;;;-2.70;99.90;;;;;;5047420;28;20224;-70
2021/12/22 01:10:41;;;;;;;49.60;27.13;;;-2.80;99.90;;;;;;5046542;28;20250;-71
2021/12/22 01:13:09;;;;;;;59.85;29.00;;;-2.70;99.90;;;;;;5047258;28;20419;-71
2021/12/22 01:15:37;;;;;;;92.88;33.15;;;-2.70;99.90;;;;;;5047271;28;20429;-70
2021/12/22 01:18:10;;;;;;;80.20;33.40;;;-2.70;99.90;;;;;;5039761;28;20223;-70
2021/12/22 01:20:51;;;;;;;59.28;29.75;;;-2.80;99.90;;;;;;5044998;28;20223;-70
2021/12/22 01:23:21;;;;;;;46.47;28.60;;;-2.80;99.90;;;;;;5044686;28;20204;-71
2021/12/22 01:25:48;;;;;;;56.78;28.55;;;-3.00;99.90;;;;;;5046400;28;20304;-70
2021/12/22 01:28:16;;;;;;;58.53;29.88;;;-2.90;99.90;;;;;;5043897;28;20240;-70
2021/12/22 01:30:44;;;;;;;79.75;28.98;;;-2.90;99.90;;;;;;5046124;28;20227;-70
2021/12/22 01:33:12;;;;;;;54.53;29.15;;;-2.80;99.90;;;;;;5046890;28;20283;-70
2021/12/22 01:35:39;;;;;;;70.60;31.33;;;-2.70;99.90;;;;;;5046803;28;20290;-71
2021/12/22 01:38:07;;;;;;;71.80;32.10;;;-2.70;99.90;;;;;;5047287;28;20185;-70
2021/12/22 01:40:42;;;;;;;55.38;31.40;;;-2.70;99.90;;;;;;5045983;28;20390;-70
2021/12/22 01:43:09;;;;;;;99.60;34.45;;;-2.70;99.90;;;;;;5042582;28;20261;-70
2021/12/22 01:45:54;;;;;;;50.70;27.80;;;-2.70;99.90;;;;;;5046497;28;20224;-70
2021/12/22 01:51:32;;;;;;;48.60;26.27;;;-2.90;99.90;;;;;;5037212;28;20226;-70
2021/12/22 01:54:03;;;;;;;92.28;29.02;;;-2.70;99.90;;;;;;5046222;28;20226;-70
2021/12/22 01:56:33;;;;;;;59.17;25.80;;;-2.70;99.90;;;;;;5046436;28;20192;-70
2021/12/22 01:59:01;;;;;;;45.83;27.50;;;-2.80;99.90;;;;;;5046774;28;20286;-70
2021/12/22 02:01:31;;;;;;;42.70;23.58;;;-2.80;99.90;;;;;;5045519;28;20263;-70
2021/12/22 02:03:58;;;;;;;75.57;29.52;;;-2.80;99.90;;;;;;5046319;28;20184;-70
2021/12/22 02:06:27;;;;;;;63.58;30.00;;;-2.80;99.90;;;;;;5045721;28;20215;-70
2021/12/22 02:08:54;;;;;;;48.03;26.80;;;-2.90;99.90;;;;;;5045910;28;20180;-71
2021/12/22 02:11:23;;;;;;;63.80;29.42;;;-3.00;99.90;;;;;;5037183;28;20220;-70
2021/12/22 02:13:59;;;;;;;53.33;27.95;;;-2.90;99.90;;;;;;5045594;28;20239;-69
2021/12/22 02:16:29;;;;;;;56.03;28.23;;;-2.90;99.90;;;;;;5037533;28;20315;-69
2021/12/22 02:18:59;;;;;;;64.95;26.83;;;-2.90;99.90;;;;;;5043138;28;20197;-70
2021/12/22 02:21:32;;;;;;;58.22;27.00;;;-2.90;99.90;;;;;;5043356;28;20290;-69
2021/12/22 02:23:59;;;;;;;77.72;28.50;;;-2.80;99.90;;;;;;5041676;28;20252;-69
2021/12/22 02:26:33;;;;;;;72.55;26.85;;;-2.80;99.90;;;;;;5043882;28;20203;-70
2021/12/22 02:29:04;;;;;;;71.97;30.10;;;-2.90;99.90;;;;;;5044804;28;20289;-70
2021/12/22 02:31:36;;;;;;;41.80;24.65;;;-2.90;99.90;;;;;;5038594;28;20231;-70
2021/12/22 02:34:03;;;;;;;47.25;25.38;;;-2.90;99.90;;;;;;5046119;28;20258;-70
2021/12/22 02:36:40;;;;;;;48.00;24.10;;;-2.70;99.90;;;;;;5045652;28;20216;-70
2021/12/22 02:39:07;;;;;;;102.68;33.53;;;-2.90;99.90;;;;;;5045779;28;20188;-70
2021/12/22 02:41:37;;;;;;;52.78;26.83;;;-2.90;99.90;;;;;;5045148;28;21361;-70
2021/12/22 02:44:07;;;;;;;46.75;23.45;;;-2.90;99.90;;;;;;5045924;28;20199;-70
2021/12/22 02:46:36;;;;;;;42.47;24.92;;;-2.80;99.90;;;;;;5046051;28;20238;-70
2021/12/22 02:49:05;;;;;;;67.05;27.58;;;-2.70;99.90;;;;;;5042584;28;20247;-70
2021/12/22 02:51:32;;;;;;;62.20;27.27;;;-2.70;99.90;;;;;;5044794;28;20502;-70
2021/12/22 02:54:06;;;;;;;56.13;28.58;;;-2.70;99.90;;;;;;5044834;28;20196;-70
2021/12/22 02:56:38;;;;;;;75.00;26.08;;;-2.70;99.90;;;;;;5045269;28;20245;-70
2021/12/22 02:59:34;;;;;;;59.97;29.55;;;-2.70;99.90;;;;;;5041056;28;20212;-70
2021/12/22 03:02:18;;;;;;;52.30;27.23;;;-2.70;99.90;;;;;;5044563;28;20282;-70
2021/12/22 03:04:52;;;;;;;40.15;24.52;;;-2.70;99.90;;;;;;5040292;28;20214;-70
2021/12/22 03:07:23;;;;;;;52.47;25.08;;;-2.70;99.90;;;;;;5044740;28;20338;-70
2021/12/22 03:10:00;;;;;;;62.15;24.60;;;-2.80;99.90;;;;;;5045083;28;20222;-70
2021/12/22 03:12:29;;;;;;;84.20;27.30;;;-2.80;99.90;;;;;;5045544;28;20491;-70
2021/12/22 03:14:56;;;;;;;42.75;23.08;;;-2.60;99.90;;;;;;5039074;28;20203;-70
2021/12/22 03:17:23;;;;;;;50.53;24.70;;;-2.80;99.90;;;;;;5045013;28;20195;-70
2021/12/22 03:19:50;;;;;;;47.15;22.25;;;-2.70;99.90;;;;;;5036990;28;20351;-71
2021/12/22 03:22:20;;;;;;;42.22;24.13;;;-2.60;99.90;;;;;;5045918;28;20192;-70
2021/12/22 03:24:49;;;;;;;52.55;24.80;;;-2.60;99.90;;;;;;5043168;28;20200;-70
2021/12/22 03:27:19;;;;;;;59.85;27.10;;;-2.60;99.90;;;;;;5049313;28;20224;-70
2021/12/22 03:29:46;;;;;;;78.90;27.27;;;-2.70;99.90;;;;;;5047886;28;20276;-70
2021/12/22 03:32:13;;;;;;;57.20;25.35;;;-2.80;99.90;;;;;;5049462;28;20349;-69
2021/12/22 03:34:42;;;;;;;119.97;31.30;;;-2.80;99.90;;;;;;5048734;28;20361;-69
2021/12/22 03:37:10;;;;;;;48.42;24.55;;;-2.90;99.90;;;;;;5046386;28;20208;-70
2021/12/22 03:39:37;;;;;;;78.68;27.92;;;-3.00;99.90;;;;;;5041248;28;20414;-70
2021/12/22 03:42:09;;;;;;;51.53;24.17;;;-2.90;99.90;;;;;;5049405;28;20224;-70
2021/12/22 03:44:37;;;;;;;57.05;30.05;;;-2.80;99.90;;;;;;5049064;28;20235;-70
2021/12/22 03:47:06;;;;;;;55.42;27.10;;;-2.80;99.90;;;;;;5048246;28;20198;-70
2021/12/22 03:49:33;;;;;;;45.60;26.95;;;-2.80;99.90;;;;;;5048294;28;20250;-71
2021/12/22 03:52:00;;;;;;;48.88;24.00;;;-2.70;99.90;;;;;;5046847;28;20207;-71
2021/12/22 03:54:27;;;;;;;50.17;26.48;;;-2.60;99.90;;;;;;5048599;28;20287;-71
2021/12/22 03:56:54;;;;;;;43.97;25.98;;;-2.70;99.90;;;;;;5048660;28;20212;-70
2021/12/22 03:59:22;;;;;;;56.65;24.85;;;-2.80;99.90;;;;;;5048620;28;20238;-70
2021/12/22 04:01:51;;;;;;;42.55;24.75;;;-2.90;99.90;;;;;;5048444;28;20350;-70
2021/12/22 04:04:19;;;;;;;53.72;24.92;;;-2.80;99.90;;;;;;5048729;28;20193;-71
2021/12/22 04:06:53;;;;;;;42.47;23.85;;;-2.70;99.90;;;;;;5044780;28;20190;-69
2021/12/22 04:09:26;;;;;;;40.05;24.80;;;-2.70;99.90;;;;;;5048427;28;20204;-71
2021/12/22 04:11:54;;;;;;;60.53;24.60;;;-2.60;99.90;;;;;;5047159;28;20348;-70
2021/12/22 04:14:21;;;;;;;37.80;22.40;;;-2.50;99.90;;;;;;5048498;28;20212;-70
2021/12/22 04:16:48;;;;;;;45.00;26.20;;;-2.60;99.90;;;;;;5046703;28;20195;-70
2021/12/22 04:19:16;;;;;;;40.28;23.23;;;-2.50;99.90;;;;;;5048138;28;20238;-70
2021/12/22 04:21:43;;;;;;;41.40;23.10;;;-2.40;99.90;;;;;;5047146;28;20215;-70
2021/12/22 04:24:10;;;;;;;34.92;22.85;;;-2.50;99.90;;;;;;5048100;28;20189;-70
2021/12/22 04:26:39;;;;;;;38.72;21.45;;;-2.60;99.90;;;;;;5043861;28;20195;-69
2021/12/22 04:29:06;;;;;;;51.13;26.02;;;-2.50;99.90;;;;;;5048012;28;20254;-70
2021/12/22 04:31:32;;;;;;;51.40;22.92;;;-2.40;99.90;;;;;;5047262;28;20291;-71
2021/12/22 04:34:01;;;;;;;37.80;21.10;;;-2.60;99.90;;;;;;5047942;28;20263;-70
2021/12/22 04:36:29;;;;;;;50.10;24.75;;;-2.80;99.90;;;;;;5048003;28;20296;-70
2021/12/22 04:38:59;;;;;;;63.72;24.70;;;-2.80;99.90;;;;;;5044114;28;20200;-70
2021/12/22 04:41:26;;;;;;;84.40;28.02;;;-2.90;99.90;;;;;;5047085;28;20238;-70
2021/12/22 04:43:53;;;;;;;109.53;32.80;;;-2.90;99.90;;;;;;5047996;28;20204;-70
2021/12/22 04:46:21;;;;;;;44.50;24.80;;;-3.00;99.90;;;;;;5048184;28;20207;-70
2021/12/22 04:48:48;;;;;;;68.00;26.67;;;-3.00;99.90;;;;;;5040898;28;20264;-70
2021/12/22 04:51:24;;;;;;;51.60;26.90;;;-2.90;99.90;;;;;;5046726;28;20220;-70
2021/12/22 04:53:57;;;;;;;63.42;29.40;;;-2.80;99.90;;;;;;5039947;28;20202;-70
2021/12/22 04:56:24;;;;;;;60.72;27.55;;;-2.70;99.90;;;;;;5047357;28;20188;-70
2021/12/22 04:58:51;;;;;;;44.42;26.83;;;-2.80;99.90;;;;;;5048073;28;20252;-70
2021/12/22 05:01:18;;;;;;;46.50;26.30;;;-2.70;99.90;;;;;;5046738;28;20239;-70
2021/12/22 05:03:45;;;;;;;44.80;24.02;;;-2.70;99.90;;;;;;5047070;28;20211;-70
2021/12/22 05:06:12;;;;;;;50.38;26.90;;;-2.60;99.90;;;;;;5046344;28;20238;-70
2021/12/22 05:08:39;;;;;;;50.90;24.08;;;-2.70;99.90;;;;;;5047454;28;20356;-70
2021/12/22 05:11:07;;;;;;;49.47;22.45;;;-2.80;99.90;;;;;;5046687;28;20250;-70
2021/12/22 05:13:36;;;;;;;55.22;25.42;;;-2.80;99.90;;;;;;5047619;28;20230;-70
2021/12/22 05:16:05;;;;;;;52.38;25.33;;;-2.80;99.90;;;;;;5041000;28;20431;-69
2021/12/22 05:18:50;;;;;;;51.95;26.08;;;-2.70;99.90;;;;;;5046002;28;20211;-70
2021/12/22 05:21:17;;;;;;;58.58;27.13;;;-2.60;99.90;;;;;;5046503;28;20315;-70
2021/12/22 05:23:44;;;;;;;74.97;28.33;;;-2.50;99.90;;;;;;5047017;28;20414;-70
2021/12/22 05:26:12;;;;;;;35.60;22.00;;;-2.50;99.90;;;;;;5047291;28;20189;-70
2021/12/22 05:28:39;;;;;;;37.42;22.70;;;-2.50;99.90;;;;;;5046717;28;20208;-70
2021/12/22 05:31:06;;;;;;;41.97;21.30;;;-2.40;99.90;;;;;;5046204;28;20254;-70
2021/12/22 05:33:33;;;;;;;38.70;25.35;;;-2.30;99.90;;;;;;5047194;28;20272;-70
2021/12/22 05:36:00;;;;;;;54.72;23.48;;;-2.20;99.90;;;;;;5046926;28;20254;-70
2021/12/22 05:38:27;;;;;;;49.25;23.70;;;-2.30;99.90;;;;;;5045836;28;20189;-72
2021/12/22 05:40:54;;;;;;;81.20;29.55;;;-2.30;99.90;;;;;;5042300;28;20364;-70
2021/12/22 05:43:22;;;;;;;39.95;22.98;;;-2.40;99.90;;;;;;5039742;28;20310;-70
2021/12/22 05:45:49;;;;;;;44.50;23.00;;;-2.50;99.90;;;;;;5046509;28;20216;-70
2021/12/22 05:48:16;;;;;;;36.08;22.63;;;-2.50;99.90;;;;;;5045495;28;20196;-70
2021/12/22 05:50:46;;;;;;;39.10;21.25;;;-2.60;99.90;;;;;;5045400;28;20207;-70
2021/12/22 05:53:13;;;;;;;54.20;27.88;;;-2.50;99.90;;;;;;5046333;28;20263;-70
2021/12/22 05:55:40;;;;;;;51.60;25.55;;;-2.50;99.90;;;;;;5045558;28;20260;-70
2021/12/22 05:58:07;;;;;;;42.95;24.50;;;-2.50;99.90;;;;;;5044910;28;20204;-70
2021/12/22 06:00:36;;;;;;;50.22;25.88;;;-2.50;99.90;;;;;;5045272;28;20219;-70
2021/12/22 06:03:03;;;;;;;46.40;22.90;;;-2.60;99.90;;;;;;5046327;28;20204;-70
2021/12/22 06:05:30;;;;;;;39.53;22.35;;;-2.60;99.90;;;;;;5046398;28;20199;-71
2021/12/22 06:07:57;;;;;;;52.15;31.05;;;-2.40;99.90;;;;;;5045155;28;20483;-71
2021/12/22 06:10:24;;;;;;;80.45;29.67;;;-2.30;99.90;;;;;;5045778;28;20251;-71
2021/12/22 06:12:51;;;;;;;52.40;25.65;;;-2.30;99.90;;;;;;5045843;28;20191;-71
2021/12/22 06:15:18;;;;;;;49.90;27.52;;;-2.30;99.90;;;;;;5046251;28;20407;-72
2021/12/22 06:17:53;;;;;;;60.53;26.92;;;-2.40;99.90;;;;;;5046077;28;20215;-72
2021/12/22 06:20:20;;;;;;;77.10;36.88;;;-2.40;99.90;;;;;;5045313;28;20242;-70
2021/12/22 06:22:47;;;;;;;86.38;27.98;;;-2.40;99.90;;;;;;5045643;28;20447;-71
2021/12/22 06:25:14;;;;;;;48.08;24.25;;;-2.50;99.90;;;;;;5046014;28;20199;-71
2021/12/22 06:27:42;;;;;;;58.28;26.55;;;-2.50;99.90;;;;;;5046104;28;20242;-69
2021/12/22 06:30:09;;;;;;;54.25;26.92;;;-2.50;99.90;;;;;;5045222;28;20215;-72
2021/12/22 06:32:37;;;;;;;39.70;21.92;;;-2.40;99.90;;;;;;5045869;28;20206;-69
2021/12/22 06:35:07;;;;;;;43.42;23.20;;;-2.40;99.90;;;;;;5045444;28;20399;-69
2021/12/22 06:37:36;;;;;;;54.55;29.70;;;-2.50;99.90;;;;;;5042838;28;20193;-69
2021/12/22 06:40:05;;;;;;;47.38;26.83;;;-2.60;99.90;;;;;;5038426;28;20224;-70
2021/12/22 06:42:33;;;;;;;49.35;23.58;;;-2.60;99.90;;;;;;5041868;28;20291;-69
2021/12/22 06:45:00;;;;;;;49.78;23.60;;;-2.60;99.90;;;;;;5046032;28;20327;-70
2021/12/22 06:47:27;;;;;;;51.85;26.02;;;-2.60;99.90;;;;;;5045299;28;20203;-69
2021/12/22 06:49:54;;;;;;;47.00;22.70;;;-2.60;99.90;;;;;;5044460;28;20184;-69
2021/12/22 06:52:23;;;;;;;48.15;22.80;;;-2.50;99.90;;;;;;5045547;28;20211;-69
2021/12/22 06:54:51;;;;;;;59.63;23.15;;;-2.60;99.90;;;;;;5037804;28;20238;-69
2021/12/22 06:57:20;;;;;;;57.88;26.02;;;-2.70;99.90;;;;;;5045129;28;20202;-70
2021/12/22 06:59:47;;;;;;;50.92;23.75;;;-2.70;99.90;;;;;;5044964;28;20696;-71
2021/12/22 07:02:16;;;;;;;38.70;22.10;;;-2.70;99.90;;;;;;5045405;28;20294;-71
2021/12/22 07:04:43;;;;;;;47.28;23.45;;;-2.70;99.90;;;;;;5049354;28;20192;-71
2021/12/22 07:07:10;;;;;;;45.40;23.83;;;-2.70;99.90;;;;;;5049434;28;20263;-69
2021/12/22 07:09:38;;;;;;;49.67;22.70;;;-2.60;99.90;;;;;;5048365;28;20433;-70
2021/12/22 07:12:06;;;;;;;45.90;23.15;;;-2.60;99.90;;;;;;5053256;28;20230;-69
2021/12/22 07:14:33;;;;;;;40.35;22.48;;;-2.60;99.90;;;;;;5048631;28;20211;-69
2021/12/22 07:17:03;;;;;;;50.70;22.02;;;-2.30;99.90;;;;;;5049302;28;20184;-69
2021/12/22 07:19:30;;;;;;;45.60;22.73;;;-2.20;99.90;;;;;;5048220;28;20196;-71
2021/12/22 07:21:57;;;;;;;38.03;21.02;;;-1.90;99.90;;;;;;5043358;28;20221;-69
2021/12/22 07:24:24;;;;;;;40.35;23.33;;;-1.80;99.90;;;;;;5046869;28;20227;-69
2021/12/22 07:26:53;;;;;;;47.10;24.70;;;-2.00;99.90;;;;;;5043195;28;20192;-69
2021/12/22 07:29:20;;;;;;;32.00;19.92;;;-2.30;99.90;;;;;;5045223;28;20192;-69
2021/12/22 07:31:47;;;;;;;37.88;22.05;;;-2.10;99.90;;;;;;5042931;28;20208;-70
2021/12/22 07:34:28;;;;;;;35.03;20.90;;;-2.00;99.90;;;;;;5049041;28;20230;-70
2021/12/22 07:37:04;;;;;;;39.03;22.10;;;-1.90;99.90;;;;;;5042486;28;20257;-68
2021/12/22 07:39:31;;;;;;;41.25;19.70;;;-2.10;99.90;;;;;;5047765;28;20450;-72
2021/12/22 07:41:59;;;;;;;36.70;19.70;;;-2.20;99.90;;;;;;5048630;28;20247;-70
2021/12/22 07:44:26;;;;;;;35.33;22.40;;;-2.20;99.90;;;;;;5046330;28;20407;-71
2021/12/22 07:46:53;;;;;;;33.92;20.48;;;-2.20;99.90;;;;;;5048760;28;20220;-69
2021/12/22 07:49:20;;;;;;;41.08;21.65;;;-2.00;99.90;;;;;;5048679;28;20251;-71
2021/12/22 07:51:47;;;;;;;32.83;18.65;;;-2.10;99.90;;;;;;5043625;28;20261;-71
2021/12/22 07:54:13;;;;;;;26.63;17.25;;;-2.10;99.90;;;;;;5037986;28;20247;-70
2021/12/22 07:56:40;;;;;;;36.13;18.17;;;-2.10;99.90;;;;;;5048316;28;20203;-70
2021/12/22 07:59:09;;;;;;;38.83;18.98;;;-2.30;99.90;;;;;;5047761;28;20192;-70
2021/12/22 08:01:36;;;;;;;33.10;18.55;;;-2.20;99.90;;;;;;5043572;28;20239;-70
2021/12/22 08:04:03;;;;;;;37.58;21.30;;;-2.20;99.90;;;;;;5044339;28;20192;-70
2021/12/22 08:06:31;;;;;;;30.63;17.52;;;-2.10;99.90;;;;;;5046015;28;20354;-70
2021/12/22 08:08:58;;;;;;;33.00;17.70;;;-2.10;99.90;;;;;;5040290;28;20208;-71
2021/12/22 08:11:25;;;;;;;33.65;18.60;;;-2.00;99.90;;;;;;5046894;28;20438;-70
2021/12/22 08:13:52;;;;;;;35.47;19.27;;;-1.90;99.90;;;;;;5047989;28;20231;-70
2021/12/22 08:16:21;;;;;;;30.73;18.33;;;-1.90;99.90;;;;;;5048624;28;20244;-70
2021/12/22 08:18:48;;;;;;;41.55;20.80;;;-1.80;99.90;;;;;;5042452;28;20215;-70
2021/12/22 08:21:15;;;;;;;40.17;20.40;;;-1.90;99.90;;;;;;5027336;28;20451;-70
2021/12/22 08:23:42;;;;;;;34.15;18.77;;;-2.00;99.90;;;;;;5046806;28;20215;-70
2021/12/22 08:26:10;;;;;;;40.88;21.60;;;-2.00;99.90;;;;;;5044074;28;20247;-70
2021/12/22 08:28:37;;;;;;;35.35;18.80;;;-1.90;99.90;;;;;;5050184;28;20207;-70
2021/12/22 08:31:06;;;;;;;33.83;21.00;;;-2.20;99.90;;;;;;5047591;28;20263;-69
2021/12/22 08:33:43;;;;;;;42.28;22.60;;;-2.20;99.90;;;;;;5048359;28;20228;-70
2021/12/22 08:38:56;;;;;;;36.65;20.73;;;-2.10;99.90;;;;;;5047971;28;20416;-70
2021/12/22 08:41:26;;;;;;;39.80;20.23;;;-2.00;99.90;;;;;;5047636;28;20216;-70
2021/12/22 08:43:55;;;;;;;36.30;20.45;;;-1.90;99.90;;;;;;5045440;28;20275;-70
2021/12/22 08:46:23;;;;;;;32.53;19.52;;;-1.90;99.90;;;;;;5045707;28;20526;-69
2021/12/22 08:48:52;;;;;;;44.03;22.75;;;-1.80;99.90;;;;;;5047591;28;20248;-70
2021/12/22 08:51:22;;;;;;;41.22;22.40;;;-1.60;99.90;;;;;;5047143;28;20459;-70
2021/12/22 08:53:49;;;;;;;39.08;19.65;;;-1.60;99.90;;;;;;5047241;28;20419;-70
2021/12/22 08:56:16;;;;;;;35.30;19.75;;;-1.40;99.90;;;;;;5047771;28;20395;-69
2021/12/22 08:58:43;;;;;;;36.10;19.48;;;-1.50;99.90;;;;;;5045174;28;20474;-70
2021/12/22 09:01:10;;;;;;;41.40;20.00;;;-1.50;99.90;;;;;;5042321;28;20220;-70
2021/12/22 09:03:37;;;;;;;34.47;21.88;;;-1.60;99.90;;;;;;5034483;28;20215;-70
2021/12/22 09:06:05;;;;;;;36.75;21.13;;;-1.60;99.90;;;;;;5047421;28;20280;-69
2021/12/22 09:08:32;;;;;;;38.90;21.98;;;-1.40;99.90;;;;;;5046139;28;20208;-69
2021/12/22 09:11:00;;;;;;;36.95;20.77;;;-1.30;99.90;;;;;;5046161;28;20251;-69
2021/12/22 09:13:27;;;;;;;40.03;21.13;;;-1.30;99.90;;;;;;5041241;28;20264;-70
2021/12/22 09:15:54;;;;;;;38.53;20.85;;;-1.40;99.90;;;;;;5043382;28;20188;-70
2021/12/22 09:18:21;;;;;;;44.50;21.90;;;-1.70;99.90;;;;;;5046861;28;20192;-70
2021/12/22 09:20:48;;;;;;;35.70;20.45;;;-1.70;99.90;;;;;;5041072;28;20231;-70
2021/12/22 09:23:16;;;;;;;45.38;22.95;;;-1.70;99.90;;;;;;5047024;28;20220;-69
2021/12/22 09:25:43;;;;;;;43.00;19.95;;;-1.70;99.90;;;;;;5039789;28;20224;-69
2021/12/22 09:28:12;;;;;;;38.70;22.50;;;-1.70;99.90;;;;;;5046888;28;20231;-69
2021/12/22 09:30:43;;;;;;;42.28;22.95;;;-1.50;99.90;;;;;;5045901;28;20302;-70
2021/12/22 09:33:13;;;;;;;39.47;21.02;;;-1.30;99.90;;;;;;5046546;28;20188;-70
2021/12/22 09:35:41;;;;;;;39.95;21.80;;;-1.10;99.90;;;;;;5046480;28;20275;-70
2021/12/22 09:38:09;;;;;;;47.78;23.80;;;-1.10;99.90;;;;;;5039895;28;20236;-70
2021/12/22 09:40:37;;;;;;;39.88;21.92;;;-1.20;99.90;;;;;;5044147;28;20251;-70
2021/12/22 09:43:05;;;;;;;36.47;21.80;;;-1.40;99.90;;;;;;5041791;28;20216;-70
2021/12/22 09:45:35;;;;;;;39.15;21.90;;;-1.20;99.90;;;;;;5044957;28;20204;-69
2021/12/22 09:48:25;;;;;;;39.15;22.33;;;-1.20;99.90;;;;;;5041085;28;20189;-70
2021/12/22 09:52:15;;;;;;;40.33;19.75;;;-1.20;99.90;;;;;;5044662;28;20212;-70
2021/12/22 09:53:43;;;;;;;37.15;20.98;;;-1.20;99.90;;;;;;5043623;28;20201;-70
2021/12/22 09:56:12;;;;;;;32.92;19.83;;;-1.10;99.90;;;;;;5042230;28;20255;-70
2021/12/22 09:58:41;;;;;;;36.88;21.30;;;-1.10;99.90;;;;;;5046207;28;20431;-70
2021/12/22 10:01:09;;;;;;;42.63;21.38;;;-0.90;99.90;;;;;;5045566;28;20399;-71
2021/12/22 10:03:36;;;;;;;38.88;22.38;;;-1.00;99.90;;;;;;5045351;28;20271;-71
2021/12/22 10:06:03;;;;;;;42.63;21.73;;;-1.10;99.90;;;;;;5046367;28;20329;-70
2021/12/22 10:08:30;;;;;;;41.97;21.65;;;-1.00;99.90;;;;;;5045711;28;20184;-71
2021/12/22 10:11:03;;;;;;;48.70;22.77;;;-0.90;99.90;;;;;;5045175;28;20208;-70
2021/12/22 10:13:32;;;;;;;42.92;21.40;;;-0.90;99.90;;;;;;5045639;28;20206;-71
2021/12/22 10:16:00;;;;;;;40.20;21.30;;;-0.90;99.90;;;;;;5045504;28;20259;-70
2021/12/22 10:18:29;;;;;;;40.95;24.95;;;-0.90;99.90;;;;;;5044985;28;20433;-70
2021/12/22 10:21:11;;;;;;;41.42;23.02;;;-1.00;99.90;;;;;;5037051;28;20240;-70
2021/12/22 10:23:42;;;;;;;46.42;24.85;;;-1.00;99.90;;;;;;5045036;28;20446;-71
2021/12/22 10:26:10;;;;;;;43.88;21.60;;;-1.00;99.90;;;;;;5046031;28;20254;-71
2021/12/22 10:28:54;;;;;;;39.78;22.50;;;-1.00;99.90;;;;;;5037704;28;20184;-71
2021/12/22 10:31:27;;;;;;;38.60;23.98;;;-1.10;99.90;;;;;;5042114;28;20212;-69
2021/12/22 10:33:54;;;;;;;42.03;24.42;;;-1.00;99.90;;;;;;5042886;28;20219;-70
2021/12/22 10:36:22;;;;;;;45.53;23.17;;;-1.00;99.90;;;;;;5044955;28;20263;-69
2021/12/22 10:38:52;;;;;;;49.15;23.83;;;-0.90;99.90;;;;;;5045015;28;20199;-68
2021/12/22 10:41:20;;;;;;;42.83;21.83;;;-0.80;99.90;;;;;;5041837;28;20283;-70
2021/12/22 10:43:49;;;;;;;44.08;24.95;;;-0.80;99.90;;;;;;5045280;28;20453;-70
2021/12/22 10:46:26;;;;;;;39.80;23.35;;;-0.80;99.90;;;;;;5045769;28;20211;-70
2021/12/22 10:49:17;;;;;;;42.78;21.17;;;-0.70;99.90;;;;;;5039189;28;20184;-70
2021/12/22 10:51:47;;;;;;;44.85;21.90;;;-0.60;99.90;;;;;;5040964;28;20346;-70
2021/12/22 10:54:16;;;;;;;45.78;22.27;;;-0.60;99.90;;;;;;5044883;28;20222;-70
2021/12/22 10:56:46;;;;;;;42.13;24.00;;;-0.50;99.90;;;;;;5044514;28;20184;-69
2021/12/22 10:59:14;;;;;;;44.05;23.08;;;-0.60;99.90;;;;;;5045012;28;20208;-70
2021/12/22 11:02:05;;;;;;;42.70;24.70;;;-0.50;99.90;;;;;;5044453;28;20441;-70
2021/12/22 11:04:33;;;;;;;79.63;40.78;;;-0.50;99.90;;;;;;5043064;28;20268;-70
2021/12/22 11:07:08;;;;;;;45.05;25.40;;;-0.40;99.90;;;;;;5039642;28;20193;-69
2021/12/22 11:09:36;;;;;;;40.80;23.90;;;-0.40;99.90;;;;;;5044124;28;20203;-68
2021/12/22 11:12:05;;;;;;;45.40;24.48;;;-0.50;99.90;;;;;;5045247;28;20214;-71
2021/12/22 11:14:33;;;;;;;42.53;20.65;;;-0.40;99.90;;;;;;5045004;28;20277;-69
2021/12/22 11:17:05;;;;;;;35.85;20.92;;;-0.40;99.90;;;;;;5045425;28;20192;-71
2021/12/22 11:19:34;;;;;;;35.60;22.98;;;-0.50;99.90;;;;;;5044532;28;20222;-69
2021/12/22 11:22:09;;;;;;;34.40;20.50;;;-0.50;99.90;;;;;;5040230;28;20228;-70
2021/12/22 11:24:39;;;;;;;40.35;22.38;;;-0.40;99.90;;;;;;5044573;28;20208;-70
2021/12/22 11:27:08;;;;;;;37.10;20.90;;;-0.60;99.90;;;;;;5045326;28;20185;-70
2021/12/22 11:29:37;;;;;;;45.33;24.80;;;-0.40;99.90;;;;;;5044031;28;20180;-69
2021/12/22 11:32:08;;;;;;;46.55;24.40;;;-0.40;99.90;;;;;;5045028;28;20267;-70
2021/12/22 11:34:38;;;;;;;36.05;20.60;;;-0.40;99.90;;;;;;5038117;28;20223;-70
2021/12/22 11:37:08;;;;;;;49.85;26.02;;;-0.40;99.90;;;;;;5035180;28;20200;-70
2021/12/22 11:39:35;;;;;;;35.85;19.33;;;-0.60;99.90;;;;;;5044188;28;20200;-70
2021/12/22 11:42:07;;;;;;;37.95;23.70;;;-0.80;99.90;;;;;;5044220;28;20209;-71
2021/12/22 11:44:35;;;;;;;46.42;22.50;;;-0.80;99.90;;;;;;5044384;28;20463;-71
2021/12/22 11:47:05;;;;;;;45.92;21.85;;;-0.70;99.90;;;;;;5044477;28;20189;-71
2021/12/22 11:49:37;;;;;;;47.28;27.85;;;-0.60;99.90;;;;;;5046896;28;20335;-69
2021/12/22 11:52:29;;;;;;;47.13;26.15;;;-0.50;99.90;;;;;;5042603;28;20282;-69
2021/12/22 11:55:15;;;;;;;42.03;22.35;;;-0.50;99.90;;;;;;5048393;28;20415;-74
2021/12/22 11:57:43;;;;;;;38.45;22.98;;;-0.50;99.90;;;;;;5041749;28;20184;-71
2021/12/22 12:00:37;;;;;;;40.05;22.20;;;-0.50;99.90;;;;;;5043109;28;20227;-70
2021/12/22 12:03:24;;;;;;;35.05;21.92;;;-0.50;99.90;;;;;;5012266;28;20264;-70
2021/12/22 12:06:10;;;;;;;39.42;22.08;;;-0.40;99.90;;;;;;5048262;28;20188;-73
2021/12/22 12:08:41;;;;;;;39.90;22.80;;;-0.30;99.90;;;;;;5047826;28;20200;-71
2021/12/22 12:11:11;;;;;;;42.00;24.80;;;-0.30;99.90;;;;;;5047298;28;20255;-70
2021/12/22 12:13:46;;;;;;;36.63;21.58;;;-0.40;99.90;;;;;;5048251;28;20243;-71
2021/12/22 12:22:09;;;;;;;35.00;21.95;;;0.00;99.90;;;;;;5041925;28;20223;-70
2021/12/22 12:24:43;;;;;;;43.05;20.92;;;0.10;99.90;;;;;;5046612;28;20227;-72
2021/12/22 12:27:39;;;;;;;31.52;19.63;;;-0.10;99.90;;;;;;5041828;28;20260;-70
2021/12/22 12:30:09;;;;;;;38.38;23.33;;;-0.30;99.90;;;;;;5036355;28;20267;-70
2021/12/22 12:32:59;;;;;;;41.83;22.20;;;-0.20;99.90;;;;;;5042570;28;20192;-69
2021/12/22 12:35:28;;;;;;;36.10;20.55;;;-0.20;99.90;;;;;;5047855;28;20288;-69
2021/12/22 12:38:06;;;;;;;31.52;19.10;;;-0.20;99.90;;;;;;5047195;28;20188;-69
2021/12/22 12:41:16;;;;;;;31.95;19.95;;;-0.20;99.90;;;;;;5039305;28;20208;-69
2021/12/22 12:44:02;;;;;;;32.58;18.25;;;-0.10;99.90;;;;;;5041236;28;20216;-73
2021/12/22 12:46:37;;;;;;;27.52;16.55;;;0.00;99.90;;;;;;5047018;28;20188;-74
2021/12/22 12:49:38;;;;;;;33.00;20.85;;;0.10;99.90;;;;;;5045731;28;20207;-74
2021/12/22 12:52:09;;;;;;;28.98;18.40;;;0.00;99.90;;;;;;5042766;28;20207;-74
2021/12/22 12:54:43;;;;;;;33.17;21.45;;;0.20;99.90;;;;;;5033509;28;20216;-73